sensor_id;sensor_type;location;lat;lon;timestamp;pressure;altitude;pressure_sealevel;temperature;humidity
57412;BME280;43247;52.828;-8.980;2023-01-28T00:00:25;103406.20;;;4.37;91.74
57412;BME280;43247;52.828;-8.980;2023-01-28T00:01:26;103404.07;;;4.35;91.83
57412;BME280;43247;52.828;-8.980;2023-01-28T00:02:26;103403.61;;;4.38;91.74
57412;BME280;43247;52.828;-8.980;2023-01-28T00:03:27;103403.96;;;4.37;91.88
57412;BME280;43247;52.828;-8.980;2023-01-28T00:04:27;103405.50;;;4.36;91.90
57412;BME280;43247;52.828;-8.980;2023-01-28T00:05:28;103403.69;;;4.37;91.87
57412;BME280;43247;52.828;-8.980;2023-01-28T00:06:28;103402.27;;;4.36;91.80
57412;BME280;43247;52.828;-8.980;2023-01-28T00:07:29;103400.92;;;4.35;91.95
57412;BME280;43247;52.828;-8.980;2023-01-28T00:08:29;103400.91;;;4.35;91.95
57412;BME280;43247;52.828;-8.980;2023-01-28T00:09:29;103397.51;;;4.39;91.82
57412;BME280;43247;52.828;-8.980;2023-01-28T00:10:29;103396.76;;;4.37;91.90
57412;BME280;43247;52.828;-8.980;2023-01-28T00:11:30;103392.22;;;4.36;92.03
57412;BME280;43247;52.828;-8.980;2023-01-28T00:12:30;103388.02;;;4.37;92.02
57412;BME280;43247;52.828;-8.980;2023-01-28T00:13:31;103383.70;;;4.37;92.07
57412;BME280;43247;52.828;-8.980;2023-01-28T00:14:30;103378.46;;;4.28;92.42
57412;BME280;43247;52.828;-8.980;2023-01-28T00:15:30;103378.98;;;4.06;92.56
57412;BME280;43247;52.828;-8.980;2023-01-28T00:16:31;103380.58;;;4.01;92.76
57412;BME280;43247;52.828;-8.980;2023-01-28T00:17:32;103377.23;;;4.10;92.37
57412;BME280;43247;52.828;-8.980;2023-01-28T00:18:32;103377.22;;;4.06;92.36
57412;BME280;43247;52.828;-8.980;2023-01-28T00:19:32;103378.66;;;4.12;92.46
57412;BME280;43247;52.828;-8.980;2023-01-28T00:20:33;103378.67;;;4.18;91.97
57412;BME280;43247;52.828;-8.980;2023-01-28T00:21:33;103378.37;;;4.22;91.78
57412;BME280;43247;52.828;-8.980;2023-01-28T00:22:34;103377.67;;;4.26;91.66
57412;BME280;43247;52.828;-8.980;2023-01-28T00:23:36;103378.14;;;4.27;91.45
57412;BME280;43247;52.828;-8.980;2023-01-28T00:24:35;103376.76;;;4.30;91.68
57412;BME280;43247;52.828;-8.980;2023-01-28T00:25:35;103377.88;;;4.28;91.72
57412;BME280;43247;52.828;-8.980;2023-01-28T00:26:36;103374.12;;;4.33;91.78
57412;BME280;43247;52.828;-8.980;2023-01-28T00:27:36;103374.52;;;4.28;91.70
57412;BME280;43247;52.828;-8.980;2023-01-28T00:28:37;103373.72;;;4.26;91.79
57412;BME280;43247;52.828;-8.980;2023-01-28T00:29:37;103370.53;;;4.14;91.96
57412;BME280;43247;52.828;-8.980;2023-01-28T00:30:38;103368.89;;;4.19;91.80
57412;BME280;43247;52.828;-8.980;2023-01-28T00:31:38;103368.67;;;4.23;91.76
57412;BME280;43247;52.828;-8.980;2023-01-28T00:32:39;103369.30;;;4.21;91.96
57412;BME280;43247;52.828;-8.980;2023-01-28T00:33:39;103370.48;;;4.22;91.90
57412;BME280;43247;52.828;-8.980;2023-01-28T00:34:39;103368.11;;;4.21;92.00
57412;BME280;43247;52.828;-8.980;2023-01-28T00:35:40;103369.21;;;4.17;92.01
57412;BME280;43247;52.828;-8.980;2023-01-28T00:36:40;103371.09;;;4.15;92.31
57412;BME280;43247;52.828;-8.980;2023-01-28T00:37:40;103372.10;;;4.29;91.72
57412;BME280;43247;52.828;-8.980;2023-01-28T00:38:42;103373.77;;;4.25;91.83
57412;BME280;43247;52.828;-8.980;2023-01-28T00:39:42;103370.56;;;4.23;91.90
57412;BME280;43247;52.828;-8.980;2023-01-28T00:40:42;103366.44;;;4.23;92.02
57412;BME280;43247;52.828;-8.980;2023-01-28T00:41:42;103364.08;;;4.29;91.84
57412;BME280;43247;52.828;-8.980;2023-01-28T00:42:43;103358.42;;;4.31;91.98
57412;BME280;43247;52.828;-8.980;2023-01-28T00:43:44;103355.16;;;4.21;92.12
57412;BME280;43247;52.828;-8.980;2023-01-28T00:44:44;103352.71;;;4.18;92.12
57412;BME280;43247;52.828;-8.980;2023-01-28T00:45:45;103354.06;;;4.17;92.13
57412;BME280;43247;52.828;-8.980;2023-01-28T00:46:46;103350.73;;;4.33;91.68
57412;BME280;43247;52.828;-8.980;2023-01-28T00:47:46;103354.20;;;4.36;91.57
57412;BME280;43247;52.828;-8.980;2023-01-28T00:48:47;103351.92;;;4.30;91.77
57412;BME280;43247;52.828;-8.980;2023-01-28T00:49:47;103353.23;;;4.28;91.84
57412;BME280;43247;52.828;-8.980;2023-01-28T00:50:48;103351.24;;;4.30;91.94
57412;BME280;43247;52.828;-8.980;2023-01-28T00:51:48;103351.14;;;4.29;91.94
57412;BME280;43247;52.828;-8.980;2023-01-28T00:52:49;103349.74;;;4.28;92.29
57412;BME280;43247;52.828;-8.980;2023-01-28T00:53:49;103348.79;;;4.18;92.50
57412;BME280;43247;52.828;-8.980;2023-01-28T00:54:50;103346.04;;;4.33;92.01
57412;BME280;43247;52.828;-8.980;2023-01-28T00:55:50;103344.19;;;4.30;92.16
57412;BME280;43247;52.828;-8.980;2023-01-28T00:56:50;103343.35;;;4.33;92.31
57412;BME280;43247;52.828;-8.980;2023-01-28T00:57:51;103343.44;;;4.32;92.02
57412;BME280;43247;52.828;-8.980;2023-01-28T00:58:51;103345.41;;;4.32;92.08
57412;BME280;43247;52.828;-8.980;2023-01-28T00:59:51;103344.38;;;4.31;92.23
57412;BME280;43247;52.828;-8.980;2023-01-28T01:00:52;103345.68;;;4.37;92.41
57412;BME280;43247;52.828;-8.980;2023-01-28T01:01:52;103346.93;;;4.36;92.55
57412;BME280;43247;52.828;-8.980;2023-01-28T01:02:53;103346.36;;;4.36;92.39
57412;BME280;43247;52.828;-8.980;2023-01-28T01:03:54;103345.97;;;4.40;92.51
57412;BME280;43247;52.828;-8.980;2023-01-28T01:04:53;103347.80;;;4.40;92.58
57412;BME280;43247;52.828;-8.980;2023-01-28T01:05:56;103347.77;;;4.43;92.45
57412;BME280;43247;52.828;-8.980;2023-01-28T01:06:55;103347.89;;;4.40;92.52
57412;BME280;43247;52.828;-8.980;2023-01-28T01:07:55;103347.85;;;4.40;92.42
57412;BME280;43247;52.828;-8.980;2023-01-28T01:08:55;103345.92;;;4.41;92.48
57412;BME280;43247;52.828;-8.980;2023-01-28T01:09:57;103344.50;;;4.44;92.47
57412;BME280;43247;52.828;-8.980;2023-01-28T01:10:57;103343.50;;;4.44;92.47
57412;BME280;43247;52.828;-8.980;2023-01-28T01:11:57;103339.68;;;4.46;92.62
57412;BME280;43247;52.828;-8.980;2023-01-28T01:12:58;103339.95;;;4.45;92.56
57412;BME280;43247;52.828;-8.980;2023-01-28T01:13:59;103340.56;;;4.46;92.48
57412;BME280;43247;52.828;-8.980;2023-01-28T01:14:58;103341.66;;;4.48;92.49
57412;BME280;43247;52.828;-8.980;2023-01-28T01:16:03;103339.68;;;4.46;92.57
57412;BME280;43247;52.828;-8.980;2023-01-28T01:16:59;103335.55;;;4.48;92.49
57412;BME280;43247;52.828;-8.980;2023-01-28T01:18:00;103336.35;;;4.47;92.47
57412;BME280;43247;52.828;-8.980;2023-01-28T01:19:00;103333.17;;;4.48;92.53
57412;BME280;43247;52.828;-8.980;2023-01-28T01:20:00;103329.61;;;4.46;92.56
57412;BME280;43247;52.828;-8.980;2023-01-28T01:21:02;103329.40;;;4.47;92.62
57412;BME280;43247;52.828;-8.980;2023-01-28T01:22:01;103326.61;;;4.46;92.82
57412;BME280;43247;52.828;-8.980;2023-01-28T01:23:02;103327.04;;;4.46;92.74
57412;BME280;43247;52.828;-8.980;2023-01-28T01:24:02;103323.54;;;4.45;92.75
57412;BME280;43247;52.828;-8.980;2023-01-28T01:25:04;103322.42;;;4.46;92.80
57412;BME280;43247;52.828;-8.980;2023-01-28T01:26:04;103321.56;;;4.49;92.74
57412;BME280;43247;52.828;-8.980;2023-01-28T01:27:04;103322.06;;;4.48;92.81
57412;BME280;43247;52.828;-8.980;2023-01-28T01:28:04;103321.17;;;4.47;92.74
57412;BME280;43247;52.828;-8.980;2023-01-28T01:29:04;103321.26;;;4.46;92.85
57412;BME280;43247;52.828;-8.980;2023-01-28T01:30:06;103317.84;;;4.46;92.94
57412;BME280;43247;52.828;-8.980;2023-01-28T01:31:07;103317.90;;;4.48;92.77
57412;BME280;43247;52.828;-8.980;2023-01-28T01:32:06;103316.84;;;4.48;92.80
57412;BME280;43247;52.828;-8.980;2023-01-28T01:33:06;103317.67;;;4.47;92.91
57412;BME280;43247;52.828;-8.980;2023-01-28T01:34:08;103317.04;;;4.48;92.96
57412;BME280;43247;52.828;-8.980;2023-01-28T01:35:09;103317.25;;;4.47;93.03
57412;BME280;43247;52.828;-8.980;2023-01-28T01:36:09;103316.22;;;4.47;93.00
57412;BME280;43247;52.828;-8.980;2023-01-28T01:37:08;103312.19;;;4.46;93.11
57412;BME280;43247;52.828;-8.980;2023-01-28T01:38:09;103311.66;;;4.45;92.97
57412;BME280;43247;52.828;-8.980;2023-01-28T01:39:11;103311.23;;;4.46;93.02
57412;BME280;43247;52.828;-8.980;2023-01-28T01:40:10;103309.74;;;4.46;92.93
57412;BME280;43247;52.828;-8.980;2023-01-28T01:41:20;103309.82;;;4.47;93.02
57412;BME280;43247;52.828;-8.980;2023-01-28T01:42:14;103311.33;;;4.49;92.90
57412;BME280;43247;52.828;-8.980;2023-01-28T01:43:15;103308.07;;;4.48;92.99
57412;BME280;43247;52.828;-8.980;2023-01-28T01:45:13;103305.07;;;4.48;92.99
57412;BME280;43247;52.828;-8.980;2023-01-28T01:46:15;103306.29;;;4.48;93.09
57412;BME280;43247;52.828;-8.980;2023-01-28T01:47:13;103304.02;;;4.50;93.05
57412;BME280;43247;52.828;-8.980;2023-01-28T01:48:16;103304.79;;;4.50;93.04
57412;BME280;43247;52.828;-8.980;2023-01-28T01:49:17;103303.21;;;4.50;93.08
57412;BME280;43247;52.828;-8.980;2023-01-28T01:50:19;103304.24;;;4.51;93.10
57412;BME280;43247;52.828;-8.980;2023-01-28T01:51:20;103301.64;;;4.50;93.08
57412;BME280;43247;52.828;-8.980;2023-01-28T01:52:18;103300.93;;;4.49;93.23
57412;BME280;43247;52.828;-8.980;2023-01-28T01:53:17;103299.62;;;4.49;93.20
57412;BME280;43247;52.828;-8.980;2023-01-28T01:54:16;103299.63;;;4.49;93.23
57412;BME280;43247;52.828;-8.980;2023-01-28T01:55:18;103298.02;;;4.49;93.13
57412;BME280;43247;52.828;-8.980;2023-01-28T01:56:18;103295.92;;;4.48;93.13
57412;BME280;43247;52.828;-8.980;2023-01-28T01:57:21;103296.11;;;4.50;93.18
57412;BME280;43247;52.828;-8.980;2023-01-28T01:58:20;103293.33;;;4.48;93.33
57412;BME280;43247;52.828;-8.980;2023-01-28T01:59:21;103292.44;;;4.48;93.30
57412;BME280;43247;52.828;-8.980;2023-01-28T02:00:18;103292.42;;;4.49;93.25
57412;BME280;43247;52.828;-8.980;2023-01-28T02:01:20;103291.60;;;4.48;93.31
57412;BME280;43247;52.828;-8.980;2023-01-28T02:02:19;103289.64;;;4.48;93.43
57412;BME280;43247;52.828;-8.980;2023-01-28T02:03:27;103289.89;;;4.48;93.45
57412;BME280;43247;52.828;-8.980;2023-01-28T02:04:24;103285.58;;;4.49;93.37
57412;BME280;43247;52.828;-8.980;2023-01-28T02:05:21;103285.18;;;4.49;93.44
57412;BME280;43247;52.828;-8.980;2023-01-28T02:06:21;103282.76;;;4.48;93.45
57412;BME280;43247;52.828;-8.980;2023-01-28T02:07:20;103284.11;;;4.50;93.43
57412;BME280;43247;52.828;-8.980;2023-01-28T02:08:21;103283.14;;;4.51;93.44
57412;BME280;43247;52.828;-8.980;2023-01-28T02:09:23;103281.24;;;4.50;93.47
57412;BME280;43247;52.828;-8.980;2023-01-28T02:10:22;103284.96;;;4.50;93.51
57412;BME280;43247;52.828;-8.980;2023-01-28T02:11:24;103286.89;;;4.51;93.44
57412;BME280;43247;52.828;-8.980;2023-01-28T02:12:23;103286.99;;;4.51;93.41
57412;BME280;43247;52.828;-8.980;2023-01-28T02:13:27;103289.07;;;4.51;93.43
57412;BME280;43247;52.828;-8.980;2023-01-28T02:14:26;103288.38;;;4.50;93.41
57412;BME280;43247;52.828;-8.980;2023-01-28T02:15:24;103289.38;;;4.52;93.35
57412;BME280;43247;52.828;-8.980;2023-01-28T02:16:24;103288.41;;;4.51;93.36
57412;BME280;43247;52.828;-8.980;2023-01-28T02:17:25;103289.71;;;4.52;93.34
57412;BME280;43247;52.828;-8.980;2023-01-28T02:18:25;103289.45;;;4.51;93.36
57412;BME280;43247;52.828;-8.980;2023-01-28T02:19:29;103292.77;;;4.52;93.36
57412;BME280;43247;52.828;-8.980;2023-01-28T02:20:34;103293.75;;;4.51;93.45
57412;BME280;43247;52.828;-8.980;2023-01-28T02:22:39;103293.97;;;4.50;93.48
57412;BME280;43247;52.828;-8.980;2023-01-28T02:23:38;103292.86;;;4.50;93.46
57412;BME280;43247;52.828;-8.980;2023-01-28T02:24:41;103292.52;;;4.50;93.58
57412;BME280;43247;52.828;-8.980;2023-01-28T02:27:37;103294.10;;;4.48;93.49
57412;BME280;43247;52.828;-8.980;2023-01-28T02:28:33;103291.62;;;4.49;93.52
57412;BME280;43247;52.828;-8.980;2023-01-28T02:29:36;103292.28;;;4.50;93.52
57412;BME280;43247;52.828;-8.980;2023-01-28T02:30:35;103290.77;;;4.49;93.55
57412;BME280;43247;52.828;-8.980;2023-01-28T02:31:36;103290.78;;;4.50;93.57
57412;BME280;43247;52.828;-8.980;2023-01-28T02:32:38;103291.64;;;4.51;93.49
57412;BME280;43247;52.828;-8.980;2023-01-28T02:33:38;103290.50;;;4.51;93.56
57412;BME280;43247;52.828;-8.980;2023-01-28T02:34:39;103288.99;;;4.42;94.08
57412;BME280;43247;52.828;-8.980;2023-01-28T02:35:38;103288.39;;;4.39;94.34
57412;BME280;43247;52.828;-8.980;2023-01-28T02:36:39;103286.58;;;4.31;94.39
57412;BME280;43247;52.828;-8.980;2023-01-28T02:37:37;103285.09;;;4.28;94.58
57412;BME280;43247;52.828;-8.980;2023-01-28T02:38:41;103286.10;;;4.31;94.22
57412;BME280;43247;52.828;-8.980;2023-01-28T02:39:40;103287.51;;;4.31;94.06
57412;BME280;43247;52.828;-8.980;2023-01-28T02:40:38;103289.26;;;4.31;94.13
57412;BME280;43247;52.828;-8.980;2023-01-28T02:41:40;103292.21;;;4.38;93.96
57412;BME280;43247;52.828;-8.980;2023-01-28T02:42:38;103290.95;;;4.35;93.91
57412;BME280;43247;52.828;-8.980;2023-01-28T02:43:40;103292.41;;;4.39;93.68
57412;BME280;43247;52.828;-8.980;2023-01-28T02:44:39;103294.39;;;4.39;93.80
57412;BME280;43247;52.828;-8.980;2023-01-28T02:45:39;103294.28;;;4.47;93.66
57412;BME280;43247;52.828;-8.980;2023-01-28T02:46:40;103293.79;;;4.49;93.49
57412;BME280;43247;52.828;-8.980;2023-01-28T02:47:40;103295.09;;;4.52;93.45
57412;BME280;43247;52.828;-8.980;2023-01-28T02:48:41;103294.42;;;4.56;93.29
57412;BME280;43247;52.828;-8.980;2023-01-28T02:49:45;103292.31;;;4.57;93.22
57412;BME280;43247;52.828;-8.980;2023-01-28T02:50:47;103291.09;;;4.60;93.14
57412;BME280;43247;52.828;-8.980;2023-01-28T02:51:52;103289.17;;;4.61;93.11
57412;BME280;43247;52.828;-8.980;2023-01-28T02:52:54;103285.97;;;4.60;93.15
57412;BME280;43247;52.828;-8.980;2023-01-28T02:53:47;103285.45;;;4.59;93.19
57412;BME280;43247;52.828;-8.980;2023-01-28T02:54:51;103282.38;;;4.59;93.30
57412;BME280;43247;52.828;-8.980;2023-01-28T02:55:50;103281.88;;;4.60;93.27
57412;BME280;43247;52.828;-8.980;2023-01-28T02:56:50;103283.43;;;4.64;93.09
57412;BME280;43247;52.828;-8.980;2023-01-28T02:57:54;103282.25;;;4.62;93.22
57412;BME280;43247;52.828;-8.980;2023-01-28T02:58:51;103283.85;;;4.63;93.14
57412;BME280;43247;52.828;-8.980;2023-01-28T02:59:52;103284.75;;;4.63;93.14
57412;BME280;43247;52.828;-8.980;2023-01-28T03:00:51;103284.38;;;4.62;93.16
57412;BME280;43247;52.828;-8.980;2023-01-28T03:01:49;103287.31;;;4.63;93.22
57412;BME280;43247;52.828;-8.980;2023-01-28T03:02:52;103286.11;;;4.62;93.22
57412;BME280;43247;52.828;-8.980;2023-01-28T03:03:56;103286.05;;;4.63;93.14
57412;BME280;43247;52.828;-8.980;2023-01-28T03:04:54;103286.34;;;4.63;93.20
57412;BME280;43247;52.828;-8.980;2023-01-28T03:05:52;103287.00;;;4.63;93.24
57412;BME280;43247;52.828;-8.980;2023-01-28T03:06:53;103290.39;;;4.62;93.39
57412;BME280;43247;52.828;-8.980;2023-01-28T03:07:51;103289.64;;;4.62;93.35
57412;BME280;43247;52.828;-8.980;2023-01-28T03:08:52;103289.67;;;4.48;93.96
57412;BME280;43247;52.828;-8.980;2023-01-28T03:09:52;103289.60;;;4.45;94.11
57412;BME280;43247;52.828;-8.980;2023-01-28T03:10:54;103288.33;;;4.36;94.30
57412;BME280;43247;52.828;-8.980;2023-01-28T03:11:55;103289.51;;;4.28;94.57
57412;BME280;43247;52.828;-8.980;2023-01-28T03:12:55;103289.84;;;4.34;94.33
57412;BME280;43247;52.828;-8.980;2023-01-28T03:13:53;103291.31;;;4.31;94.35
57412;BME280;43247;52.828;-8.980;2023-01-28T03:14:56;103291.22;;;4.37;94.04
57412;BME280;43247;52.828;-8.980;2023-01-28T03:15:54;103292.33;;;4.42;93.96
57412;BME280;43247;52.828;-8.980;2023-01-28T03:16:56;103293.74;;;4.47;93.92
57412;BME280;43247;52.828;-8.980;2023-01-28T03:18:00;103295.75;;;4.52;93.79
57412;BME280;43247;52.828;-8.980;2023-01-28T03:18:56;103297.40;;;4.53;93.68
57412;BME280;43247;52.828;-8.980;2023-01-28T03:19:57;103296.37;;;4.56;93.64
57412;BME280;43247;52.828;-8.980;2023-01-28T03:21:03;103296.55;;;4.61;93.46
57412;BME280;43247;52.828;-8.980;2023-01-28T03:21:57;103295.85;;;4.59;93.55
57412;BME280;43247;52.828;-8.980;2023-01-28T03:23:02;103298.53;;;4.61;93.42
57412;BME280;43247;52.828;-8.980;2023-01-28T03:24:02;103297.89;;;4.62;93.44
57412;BME280;43247;52.828;-8.980;2023-01-28T03:24:59;103298.66;;;4.65;93.34
57412;BME280;43247;52.828;-8.980;2023-01-28T03:26:00;103299.73;;;4.66;93.22
57412;BME280;43247;52.828;-8.980;2023-01-28T03:27:02;103298.33;;;4.65;93.25
57412;BME280;43247;52.828;-8.980;2023-01-28T03:28:03;103298.26;;;4.67;93.24
57412;BME280;43247;52.828;-8.980;2023-01-28T03:29:06;103296.18;;;4.67;93.35
57412;BME280;43247;52.828;-8.980;2023-01-28T03:30:08;103298.36;;;4.66;93.26
57412;BME280;43247;52.828;-8.980;2023-01-28T03:31:06;103295.58;;;4.65;93.39
57412;BME280;43247;52.828;-8.980;2023-01-28T03:32:04;103294.33;;;4.67;93.46
57412;BME280;43247;52.828;-8.980;2023-01-28T03:33:05;103293.21;;;4.68;93.35
57412;BME280;43247;52.828;-8.980;2023-01-28T03:34:05;103292.62;;;4.68;93.43
57412;BME280;43247;52.828;-8.980;2023-01-28T03:35:06;103292.21;;;4.70;93.29
57412;BME280;43247;52.828;-8.980;2023-01-28T03:36:06;103294.95;;;4.69;93.25
57412;BME280;43247;52.828;-8.980;2023-01-28T03:37:06;103292.43;;;4.69;93.37
57412;BME280;43247;52.828;-8.980;2023-01-28T03:38:07;103292.57;;;4.69;93.31
57412;BME280;43247;52.828;-8.980;2023-01-28T03:39:06;103292.30;;;4.69;93.33
57412;BME280;43247;52.828;-8.980;2023-01-28T03:40:08;103290.70;;;4.70;93.30
57412;BME280;43247;52.828;-8.980;2023-01-28T03:41:09;103290.07;;;4.69;93.41
57412;BME280;43247;52.828;-8.980;2023-01-28T03:42:11;103290.04;;;4.70;93.35
57412;BME280;43247;52.828;-8.980;2023-01-28T03:43:09;103284.70;;;4.69;93.43
57412;BME280;43247;52.828;-8.980;2023-01-28T03:44:09;103285.74;;;4.68;93.55
57412;BME280;43247;52.828;-8.980;2023-01-28T03:45:10;103287.81;;;4.68;93.51
57412;BME280;43247;52.828;-8.980;2023-01-28T03:46:09;103286.21;;;4.67;93.56
57412;BME280;43247;52.828;-8.980;2023-01-28T03:47:10;103286.59;;;4.66;93.66
57412;BME280;43247;52.828;-8.980;2023-01-28T03:48:10;103285.74;;;4.66;93.64
57412;BME280;43247;52.828;-8.980;2023-01-28T03:49:11;103286.25;;;4.66;93.60
57412;BME280;43247;52.828;-8.980;2023-01-28T03:50:12;103283.92;;;4.66;93.64
57412;BME280;43247;52.828;-8.980;2023-01-28T03:51:12;103278.62;;;4.65;93.67
57412;BME280;43247;52.828;-8.980;2023-01-28T03:52:12;103276.79;;;4.66;93.66
57412;BME280;43247;52.828;-8.980;2023-01-28T03:53:13;103274.51;;;4.66;93.70
57412;BME280;43247;52.828;-8.980;2023-01-28T03:54:13;103270.98;;;4.66;93.70
57412;BME280;43247;52.828;-8.980;2023-01-28T03:55:14;103271.15;;;4.64;93.75
57412;BME280;43247;52.828;-8.980;2023-01-28T03:56:14;103273.32;;;4.65;93.75
57412;BME280;43247;52.828;-8.980;2023-01-28T03:57:15;103270.48;;;4.66;93.65
57412;BME280;43247;52.828;-8.980;2023-01-28T03:58:16;103273.02;;;4.65;93.67
57412;BME280;43247;52.828;-8.980;2023-01-28T03:59:16;103273.46;;;4.67;93.67
57412;BME280;43247;52.828;-8.980;2023-01-28T04:00:18;103272.00;;;4.66;93.71
57412;BME280;43247;52.828;-8.980;2023-01-28T04:01:17;103270.06;;;4.65;93.70
57412;BME280;43247;52.828;-8.980;2023-01-28T04:02:20;103270.97;;;4.65;93.75
57412;BME280;43247;52.828;-8.980;2023-01-28T04:03:20;103271.43;;;4.64;93.77
57412;BME280;43247;52.828;-8.980;2023-01-28T04:04:18;103271.82;;;4.65;93.78
57412;BME280;43247;52.828;-8.980;2023-01-28T04:05:19;103273.32;;;4.66;93.75
57412;BME280;43247;52.828;-8.980;2023-01-28T04:06:19;103272.48;;;4.64;93.86
57412;BME280;43247;52.828;-8.980;2023-01-28T04:07:19;103273.93;;;4.65;93.82
57412;BME280;43247;52.828;-8.980;2023-01-28T04:08:20;103276.16;;;4.67;93.81
57412;BME280;43247;52.828;-8.980;2023-01-28T04:09:21;103274.37;;;4.67;93.79
57412;BME280;43247;52.828;-8.980;2023-01-28T04:10:21;103272.46;;;4.65;93.88
57412;BME280;43247;52.828;-8.980;2023-01-28T04:11:21;103271.98;;;4.65;93.93
57412;BME280;43247;52.828;-8.980;2023-01-28T04:12:22;103274.28;;;4.64;93.93
57412;BME280;43247;52.828;-8.980;2023-01-28T04:13:22;103275.09;;;4.64;93.98
57412;BME280;43247;52.828;-8.980;2023-01-28T04:14:23;103275.47;;;4.64;93.97
57412;BME280;43247;52.828;-8.980;2023-01-28T04:15:24;103276.91;;;4.65;93.85
57412;BME280;43247;52.828;-8.980;2023-01-28T04:16:24;103276.97;;;4.65;93.89
57412;BME280;43247;52.828;-8.980;2023-01-28T04:17:25;103275.41;;;4.65;93.84
57412;BME280;43247;52.828;-8.980;2023-01-28T04:18:26;103277.95;;;4.65;93.87
57412;BME280;43247;52.828;-8.980;2023-01-28T04:19:26;103274.13;;;4.64;93.96
57412;BME280;43247;52.828;-8.980;2023-01-28T04:20:26;103274.16;;;4.65;93.89
57412;BME280;43247;52.828;-8.980;2023-01-28T04:21:27;103277.46;;;4.67;93.84
57412;BME280;43247;52.828;-8.980;2023-01-28T04:22:27;103277.21;;;4.65;93.93
57412;BME280;43247;52.828;-8.980;2023-01-28T04:23:27;103276.89;;;4.65;93.88
57412;BME280;43247;52.828;-8.980;2023-01-28T04:24:28;103276.91;;;4.65;93.99
57412;BME280;43247;52.828;-8.980;2023-01-28T04:25:29;103275.64;;;4.65;93.94
57412;BME280;43247;52.828;-8.980;2023-01-28T04:26:30;103276.12;;;4.63;93.99
57412;BME280;43247;52.828;-8.980;2023-01-28T04:27:30;103274.24;;;4.64;94.02
57412;BME280;43247;52.828;-8.980;2023-01-28T04:28:31;103269.62;;;4.64;93.99
57412;BME280;43247;52.828;-8.980;2023-01-28T04:29:31;103269.53;;;4.63;94.09
57412;BME280;43247;52.828;-8.980;2023-01-28T04:30:32;103264.08;;;4.64;94.06
57412;BME280;43247;52.828;-8.980;2023-01-28T04:31:33;103262.84;;;4.64;94.01
57412;BME280;43247;52.828;-8.980;2023-01-28T04:32:33;103261.31;;;4.63;94.05
57412;BME280;43247;52.828;-8.980;2023-01-28T04:33:33;103261.55;;;4.64;93.97
57412;BME280;43247;52.828;-8.980;2023-01-28T04:34:34;103262.68;;;4.64;94.00
57412;BME280;43247;52.828;-8.980;2023-01-28T04:35:34;103261.58;;;4.64;93.99
57412;BME280;43247;52.828;-8.980;2023-01-28T04:36:35;103259.77;;;4.65;93.96
57412;BME280;43247;52.828;-8.980;2023-01-28T04:37:36;103258.79;;;4.63;94.10
57412;BME280;43247;52.828;-8.980;2023-01-28T04:38:36;103257.06;;;4.62;94.10
57412;BME280;43247;52.828;-8.980;2023-01-28T04:39:36;103254.45;;;4.62;94.16
57412;BME280;43247;52.828;-8.980;2023-01-28T04:40:36;103254.22;;;4.64;94.13
57412;BME280;43247;52.828;-8.980;2023-01-28T04:41:37;103251.90;;;4.63;94.18
57412;BME280;43247;52.828;-8.980;2023-01-28T04:42:37;103249.86;;;4.64;94.10
57412;BME280;43247;52.828;-8.980;2023-01-28T04:43:38;103249.62;;;4.65;93.97
57412;BME280;43247;52.828;-8.980;2023-01-28T04:44:38;103251.21;;;4.64;94.08
57412;BME280;43247;52.828;-8.980;2023-01-28T04:45:38;103253.25;;;4.64;94.07
57412;BME280;43247;52.828;-8.980;2023-01-28T04:46:39;103253.23;;;4.65;94.03
57412;BME280;43247;52.828;-8.980;2023-01-28T04:47:40;103252.44;;;4.63;94.19
57412;BME280;43247;52.828;-8.980;2023-01-28T04:48:40;103251.29;;;4.64;94.19
57412;BME280;43247;52.828;-8.980;2023-01-28T04:49:40;103252.60;;;4.63;94.10
57412;BME280;43247;52.828;-8.980;2023-01-28T04:50:41;103253.19;;;4.63;94.10
57412;BME280;43247;52.828;-8.980;2023-01-28T04:51:42;103252.93;;;4.63;94.09
57412;BME280;43247;52.828;-8.980;2023-01-28T04:52:42;103249.87;;;4.64;94.09
57412;BME280;43247;52.828;-8.980;2023-01-28T04:53:43;103249.37;;;4.63;94.22
57412;BME280;43247;52.828;-8.980;2023-01-28T04:54:44;103251.47;;;4.63;94.20
57412;BME280;43247;52.828;-8.980;2023-01-28T04:55:45;103252.41;;;4.62;94.32
57412;BME280;43247;52.828;-8.980;2023-01-28T04:56:45;103253.34;;;4.62;94.27
57412;BME280;43247;52.828;-8.980;2023-01-28T04:57:46;103254.37;;;4.61;94.33
57412;BME280;43247;52.828;-8.980;2023-01-28T04:58:47;103256.46;;;4.62;94.23
57412;BME280;43247;52.828;-8.980;2023-01-28T04:59:47;103260.05;;;4.64;94.19
57412;BME280;43247;52.828;-8.980;2023-01-28T05:00:53;103260.66;;;4.64;94.16
57412;BME280;43247;52.828;-8.980;2023-01-28T05:01:48;103261.31;;;4.62;94.21
57412;BME280;43247;52.828;-8.980;2023-01-28T05:02:49;103260.00;;;4.62;94.24
57412;BME280;43247;52.828;-8.980;2023-01-28T05:03:50;103258.69;;;4.63;94.21
57412;BME280;43247;52.828;-8.980;2023-01-28T05:04:51;103255.99;;;4.62;94.22
57412;BME280;43247;52.828;-8.980;2023-01-28T05:05:52;103257.30;;;4.63;94.13
57412;BME280;43247;52.828;-8.980;2023-01-28T05:06:52;103260.60;;;4.62;94.12
57412;BME280;43247;52.828;-8.980;2023-01-28T05:07:54;103261.87;;;4.63;94.07
57412;BME280;43247;52.828;-8.980;2023-01-28T05:08:53;103262.71;;;4.62;94.15
57412;BME280;43247;52.828;-8.980;2023-01-28T05:09:54;103263.27;;;4.47;95.31
57412;BME280;43247;52.828;-8.980;2023-01-28T05:10:54;103265.01;;;4.36;95.74
57412;BME280;43247;52.828;-8.980;2023-01-28T05:11:54;103265.89;;;4.40;95.54
57412;BME280;43247;52.828;-8.980;2023-01-28T05:12:55;103267.02;;;4.32;95.61
57412;BME280;43247;52.828;-8.980;2023-01-28T05:13:55;103268.15;;;4.31;95.59
57412;BME280;43247;52.828;-8.980;2023-01-28T05:14:55;103272.87;;;4.33;95.33
57412;BME280;43247;52.828;-8.980;2023-01-28T05:15:56;103277.62;;;4.35;95.30
57412;BME280;43247;52.828;-8.980;2023-01-28T05:16:57;103279.65;;;4.42;94.96
57412;BME280;43247;52.828;-8.980;2023-01-28T05:17:57;103287.21;;;4.46;94.76
57412;BME280;43247;52.828;-8.980;2023-01-28T05:18:57;103291.66;;;4.52;94.59
57412;BME280;43247;52.828;-8.980;2023-01-28T05:19:58;103294.42;;;4.56;94.35